sensor_id;sensor_type;location;lat;lon;timestamp;pressure;altitude;pressure_sealevel;temperature;humidity
38786;BME280;24535;45.508;12.252;2023-02-13T00:01:52;103744.69;;;6.76;57.50
38786;BME280;24535;45.508;12.252;2023-02-13T00:04:17;103747.31;;;6.74;57.08
38786;BME280;24535;45.508;12.252;2023-02-13T00:06:43;103743.81;;;6.74;56.76
38786;BME280;24535;45.508;12.252;2023-02-13T00:09:08;103736.84;;;6.69;57.21
38786;BME280;24535;45.508;12.252;2023-02-13T00:11:35;103742.06;;;6.68;56.97
38786;BME280;24535;45.508;12.252;2023-02-13T00:14:01;103747.31;;;6.66;57.14
38786;BME280;24535;45.508;12.252;2023-02-13T00:16:27;103740.34;;;6.64;56.93
38786;BME280;24535;45.508;12.252;2023-02-13T00:18:52;103740.34;;;6.59;56.85
38786;BME280;24535;45.508;12.252;2023-02-13T00:21:17;103754.31;;;6.58;57.21
38786;BME280;24535;45.508;12.252;2023-02-13T00:23:43;103739.50;;;6.53;57.00
38786;BME280;24535;45.508;12.252;2023-02-13T00:26:14;103743.00;;;6.50;57.45
38786;BME280;24535;45.508;12.252;2023-02-13T00:28:41;103744.72;;;6.48;57.19
38786;BME280;24535;45.508;12.252;2023-02-13T00:31:12;103747.38;;;6.45;57.37
38786;BME280;24535;45.508;12.252;2023-02-13T00:33:39;103740.38;;;6.41;57.55
38786;BME280;24535;45.508;12.252;2023-02-13T00:36:16;103745.59;;;6.39;57.79
38786;BME280;24535;45.508;12.252;2023-02-13T00:38:42;103744.75;;;6.37;57.56
38786;BME280;24535;45.508;12.252;2023-02-13T00:41:09;103744.75;;;6.34;57.77
38786;BME280;24535;45.508;12.252;2023-02-13T00:43:35;103749.09;;;6.31;57.68
38786;BME280;24535;45.508;12.252;2023-02-13T00:46:04;103748.25;;;6.29;57.68
38786;BME280;24535;45.508;12.252;2023-02-13T00:48:32;103748.25;;;6.29;57.63
38786;BME280;24535;45.508;12.252;2023-02-13T00:50:57;103751.72;;;6.26;57.41
38786;BME280;24535;45.508;12.252;2023-02-13T00:53:24;103748.25;;;6.21;57.13
38786;BME280;24535;45.508;12.252;2023-02-13T00:55:50;103743.00;;;6.18;57.64
38786;BME280;24535;45.508;12.252;2023-02-13T00:58:17;103750.88;;;6.16;57.77
38786;BME280;24535;45.508;12.252;2023-02-13T01:00:43;103740.38;;;6.10;58.18
38786;BME280;24535;45.508;12.252;2023-02-13T01:03:12;103745.63;;;6.09;57.96
38786;BME280;24535;45.508;12.252;2023-02-13T01:05:37;103749.09;;;6.06;57.40
38786;BME280;24535;45.508;12.252;2023-02-13T01:08:04;103742.16;;;6.04;57.66
38786;BME280;24535;45.508;12.252;2023-02-13T01:10:29;103747.34;;;6.02;57.74
38786;BME280;24535;45.508;12.252;2023-02-13T01:12:55;103749.13;;;6.00;57.91
38786;BME280;24535;45.508;12.252;2023-02-13T01:15:20;103738.63;;;5.97;57.71
38786;BME280;24535;45.508;12.252;2023-02-13T01:17:46;103743.00;;;5.97;58.01
38786;BME280;24535;45.508;12.252;2023-02-13T01:20:15;103742.97;;;5.95;58.03
38786;BME280;24535;45.508;12.252;2023-02-13T01:22:41;103739.50;;;5.93;58.20
38786;BME280;24535;45.508;12.252;2023-02-13T01:25:09;103739.47;;;5.90;58.51
38786;BME280;24535;45.508;12.252;2023-02-13T01:27:34;103737.72;;;5.90;58.38
38786;BME280;24535;45.508;12.252;2023-02-13T01:30:04;103736.84;;;5.90;58.19
38786;BME280;24535;45.508;12.252;2023-02-13T01:32:32;103736.84;;;5.90;58.32
38786;BME280;24535;45.508;12.252;2023-02-13T01:34:58;103735.09;;;5.89;58.31
38786;BME280;24535;45.508;12.252;2023-02-13T01:37:23;103733.34;;;5.89;58.20
38786;BME280;24535;45.508;12.252;2023-02-13T01:39:49;103734.22;;;5.87;58.25
38786;BME280;24535;45.508;12.252;2023-02-13T01:42:16;103725.50;;;5.86;58.40
38786;BME280;24535;45.508;12.252;2023-02-13T01:44:58;103726.38;;;5.84;58.09
38786;BME280;24535;45.508;12.252;2023-02-13T01:47:45;103733.34;;;5.83;57.97
38786;BME280;24535;45.508;12.252;2023-02-13T01:50:21;103731.59;;;5.81;58.01
38786;BME280;24535;45.508;12.252;2023-02-13T01:52:58;103728.09;;;5.77;58.19
38786;BME280;24535;45.508;12.252;2023-02-13T01:55:25;103725.50;;;5.76;58.05
38786;BME280;24535;45.508;12.252;2023-02-13T01:57:57;103726.34;;;5.75;58.29
38786;BME280;24535;45.508;12.252;2023-02-13T02:00:27;103722.00;;;5.74;58.31
38786;BME280;24535;45.508;12.252;2023-02-13T02:02:58;103718.53;;;5.72;57.99
38786;BME280;24535;45.508;12.252;2023-02-13T02:05:27;103718.50;;;5.68;58.73
38786;BME280;24535;45.508;12.252;2023-02-13T02:07:59;103718.50;;;5.67;58.16
38786;BME280;24535;45.508;12.252;2023-02-13T02:10:25;103716.75;;;5.66;58.93
38786;BME280;24535;45.508;12.252;2023-02-13T02:13:00;103716.75;;;5.69;58.53
38786;BME280;24535;45.508;12.252;2023-02-13T02:15:30;103724.63;;;5.69;58.43
38786;BME280;24535;45.508;12.252;2023-02-13T02:17:55;103721.13;;;5.68;58.42
38786;BME280;24535;45.508;12.252;2023-02-13T02:29:38;103724.63;;;5.69;58.27
38786;BME280;24535;45.508;12.252;2023-02-13T02:37:23;103718.50;;;5.65;58.37
38786;BME280;24535;45.508;12.252;2023-02-13T02:45:37;103714.13;;;5.63;58.27
38786;BME280;24535;45.508;12.252;2023-02-13T02:48:10;103719.38;;;5.60;58.19
38786;BME280;24535;45.508;12.252;2023-02-13T02:54:12;103717.59;;;5.57;58.48
38786;BME280;24535;45.508;12.252;2023-02-13T02:57:02;103721.06;;;5.55;58.26
38786;BME280;24535;45.508;12.252;2023-02-13T02:59:32;103710.63;;;5.53;58.25
38786;BME280;24535;45.508;12.252;2023-02-13T03:02:19;103718.47;;;5.53;58.27
38786;BME280;24535;45.508;12.252;2023-02-13T03:05:16;103715.84;;;5.55;58.50
38786;BME280;24535;45.508;12.252;2023-02-13T03:08:02;103709.75;;;5.54;58.34
38786;BME280;24535;45.508;12.252;2023-02-13T03:10:31;103715.84;;;5.55;58.21
38786;BME280;24535;45.508;12.252;2023-02-13T03:13:32;103709.75;;;5.54;58.08
38786;BME280;24535;45.508;12.252;2023-02-13T03:15:59;103699.31;;;5.56;58.11
38786;BME280;24535;45.508;12.252;2023-02-13T03:18:51;103702.81;;;5.59;58.37
38786;BME280;24535;45.508;12.252;2023-02-13T03:27:26;103708.06;;;5.72;58.25
38786;BME280;24535;45.508;12.252;2023-02-13T03:41:24;103706.31;;;5.86;57.50
38786;BME280;24535;45.508;12.252;2023-02-13T03:46:32;103715.91;;;5.90;57.26
38786;BME280;24535;45.508;12.252;2023-02-13T03:49:00;103713.31;;;5.88;57.16
38786;BME280;24535;45.508;12.252;2023-02-13T03:52:08;103711.56;;;5.89;57.45
38786;BME280;24535;45.508;12.252;2023-02-13T03:54:42;103709.81;;;5.86;57.10
38786;BME280;24535;45.508;12.252;2023-02-13T03:57:30;103712.41;;;5.79;56.58
38786;BME280;24535;45.508;12.252;2023-02-13T04:00:16;103713.28;;;5.73;56.90
38786;BME280;24535;45.508;12.252;2023-02-13T04:03:06;103715.88;;;5.67;57.17
38786;BME280;24535;45.508;12.252;2023-02-13T04:05:40;103717.63;;;5.62;56.69
38786;BME280;24535;45.508;12.252;2023-02-13T04:08:06;103721.13;;;5.59;57.18
38786;BME280;24535;45.508;12.252;2023-02-13T04:10:35;103716.75;;;5.60;57.10
38786;BME280;24535;45.508;12.252;2023-02-13T04:15:36;103719.38;;;5.55;57.16
38786;BME280;24535;45.508;12.252;2023-02-13T04:18:16;103719.31;;;5.51;57.41
38786;BME280;24535;45.508;12.252;2023-02-13T04:20:43;103717.59;;;5.48;57.04
38786;BME280;24535;45.508;12.252;2023-02-13T04:23:10;103724.56;;;5.43;57.01
38786;BME280;24535;45.508;12.252;2023-02-13T04:25:38;103728.91;;;5.41;57.16
38786;BME280;24535;45.508;12.252;2023-02-13T04:28:05;103727.13;;;5.37;57.65
38786;BME280;24535;45.508;12.252;2023-02-13T04:30:30;103728.88;;;5.36;57.46
38786;BME280;24535;45.508;12.252;2023-02-13T04:32:56;103720.16;;;5.34;57.68
38786;BME280;24535;45.508;12.252;2023-02-13T04:35:21;103721.91;;;5.35;57.38
38786;BME280;24535;45.508;12.252;2023-02-13T04:37:47;103723.66;;;5.36;57.93
38786;BME280;24535;45.508;12.252;2023-02-13T04:40:14;103711.44;;;5.34;57.24
38786;BME280;24535;45.508;12.252;2023-02-13T04:42:40;103716.69;;;5.35;57.52
38786;BME280;24535;45.508;12.252;2023-02-13T04:45:05;103714.06;;;5.35;57.53
38786;BME280;24535;45.508;12.252;2023-02-13T04:47:31;103721.91;;;5.34;57.46
38786;BME280;24535;45.508;12.252;2023-02-13T04:49:56;103714.94;;;5.31;57.38
38786;BME280;24535;45.508;12.252;2023-02-13T04:52:22;103723.63;;;5.29;57.63
38786;BME280;24535;45.508;12.252;2023-02-13T04:54:48;103728.88;;;5.27;57.71
38786;BME280;24535;45.508;12.252;2023-02-13T04:57:13;103721.88;;;5.25;57.61
38786;BME280;24535;45.508;12.252;2023-02-13T04:59:39;103724.50;;;5.23;57.92
38786;BME280;24535;45.508;12.252;2023-02-13T05:02:05;103714.88;;;5.20;57.60
38786;BME280;24535;45.508;12.252;2023-02-13T05:04:30;103722.72;;;5.20;58.01
38786;BME280;24535;45.508;12.252;2023-02-13T05:06:56;103721.84;;;5.18;57.72
38786;BME280;24535;45.508;12.252;2023-02-13T05:09:21;103732.31;;;5.20;57.88
38786;BME280;24535;45.508;12.252;2023-02-13T05:11:50;103730.53;;;5.17;57.80
38786;BME280;24535;45.508;12.252;2023-02-13T05:14:16;103727.06;;;5.15;57.78
38786;BME280;24535;45.508;12.252;2023-02-13T05:16:41;103725.31;;;5.14;57.21
38786;BME280;24535;45.508;12.252;2023-02-13T05:19:06;103732.28;;;5.12;57.86
38786;BME280;24535;45.508;12.252;2023-02-13T05:21:32;103738.38;;;5.11;58.03
38786;BME280;24535;45.508;12.252;2023-02-13T05:24:16;103736.59;;;5.09;57.86
38786;BME280;24535;45.508;12.252;2023-02-13T05:26:41;103737.47;;;5.06;57.99
38786;BME280;24535;45.508;12.252;2023-02-13T05:29:08;103729.66;;;5.09;57.98
38786;BME280;24535;45.508;12.252;2023-02-13T05:31:50;103732.28;;;5.14;58.32
38786;BME280;24535;45.508;12.252;2023-02-13T05:34:17;103731.44;;;5.15;57.77
38786;BME280;24535;45.508;12.252;2023-02-13T05:36:42;103731.44;;;5.15;58.04
38786;BME280;24535;45.508;12.252;2023-02-13T05:39:08;103728.78;;;5.13;57.70
38786;BME280;24535;45.508;12.252;2023-02-13T05:41:33;103727.94;;;5.11;57.96
38786;BME280;24535;45.508;12.252;2023-02-13T05:43:59;103730.53;;;5.08;57.71
38786;BME280;24535;45.508;12.252;2023-02-13T05:46:24;103731.38;;;5.07;58.16
38786;BME280;24535;45.508;12.252;2023-02-13T05:48:50;103728.75;;;5.06;58.23
38786;BME280;24535;45.508;12.252;2023-02-13T05:51:16;103728.75;;;5.03;58.32
38786;BME280;24535;45.508;12.252;2023-02-13T05:53:41;103716.56;;;4.99;58.28
38786;BME280;24535;45.508;12.252;2023-02-13T05:56:13;103730.47;;;5.02;58.03
38786;BME280;24535;45.508;12.252;2023-02-13T05:58:38;103719.16;;;5.00;58.27
38786;BME280;24535;45.508;12.252;2023-02-13T06:01:04;103732.22;;;5.00;58.03
38786;BME280;24535;45.508;12.252;2023-02-13T06:03:30;103732.19;;;4.97;58.41
38786;BME280;24535;45.508;12.252;2023-02-13T06:05:57;103728.72;;;4.96;58.55
38786;BME280;24535;45.508;12.252;2023-02-13T06:08:23;103724.38;;;4.95;58.69
38786;BME280;24535;45.508;12.252;2023-02-13T06:10:49;103736.56;;;4.96;58.56
38786;BME280;24535;45.508;12.252;2023-02-13T06:13:15;103737.41;;;4.97;58.32
38786;BME280;24535;45.508;12.252;2023-02-13T06:15:41;103746.16;;;4.99;58.53
38786;BME280;24535;45.508;12.252;2023-02-13T06:18:06;103739.16;;;4.98;58.13
38786;BME280;24535;45.508;12.252;2023-02-13T06:20:32;103740.94;;;4.99;59.03
38786;BME280;24535;45.508;12.252;2023-02-13T06:22:58;103738.31;;;5.01;58.20
38786;BME280;24535;45.508;12.252;2023-02-13T06:25:24;103748.78;;;5.04;58.34
38786;BME280;24535;45.508;12.252;2023-02-13T06:27:50;103749.66;;;5.03;58.55
38786;BME280;24535;45.508;12.252;2023-02-13T06:30:15;103762.72;;;5.04;58.46
38786;BME280;24535;45.508;12.252;2023-02-13T06:32:41;103755.75;;;5.03;58.49
38786;BME280;24535;45.508;12.252;2023-02-13T06:35:07;103759.22;;;5.05;58.63
38786;BME280;24535;45.508;12.252;2023-02-13T06:37:34;103762.72;;;5.06;58.37
38786;BME280;24535;45.508;12.252;2023-02-13T06:40:00;103757.50;;;5.06;58.65
38786;BME280;24535;45.508;12.252;2023-02-13T06:42:25;103769.72;;;5.08;58.62
38786;BME280;24535;45.508;12.252;2023-02-13T06:44:50;103767.97;;;5.09;58.66
38786;BME280;24535;45.508;12.252;2023-02-13T06:47:16;103765.34;;;5.10;58.42
38786;BME280;24535;45.508;12.252;2023-02-13T06:49:41;103765.38;;;5.13;58.72
38786;BME280;24535;45.508;12.252;2023-02-13T06:52:07;103769.72;;;5.14;58.78
38786;BME280;24535;45.508;12.252;2023-02-13T06:54:32;103781.06;;;5.18;58.66
38786;BME280;24535;45.508;12.252;2023-02-13T06:56:58;103772.34;;;5.17;58.76
38786;BME280;24535;45.508;12.252;2023-02-13T06:59:24;103779.34;;;5.21;58.48
38786;BME280;24535;45.508;12.252;2023-02-13T07:01:49;103771.53;;;5.23;58.86
38786;BME280;24535;45.508;12.252;2023-02-13T07:04:15;103771.53;;;5.25;59.06
38786;BME280;24535;45.508;12.252;2023-02-13T07:06:40;103764.56;;;5.28;58.87
38786;BME280;24535;45.508;12.252;2023-02-13T07:09:08;103773.31;;;5.33;58.98
38786;BME280;24535;45.508;12.252;2023-02-13T07:11:38;103770.72;;;5.35;59.19
38786;BME280;24535;45.508;12.252;2023-02-13T07:14:06;103768.13;;;5.39;58.88
38786;BME280;24535;45.508;12.252;2023-02-13T07:16:32;103778.59;;;5.44;59.09
38786;BME280;24535;45.508;12.252;2023-02-13T07:18:57;103772.50;;;5.48;59.01
38786;BME280;24535;45.508;12.252;2023-02-13T07:21:23;103770.75;;;5.53;59.02
38786;BME280;24535;45.508;12.252;2023-02-13T07:23:48;103765.53;;;5.58;58.92
38786;BME280;24535;45.508;12.252;2023-02-13T07:26:13;103762.94;;;5.67;58.93
38786;BME280;24535;45.508;12.252;2023-02-13T07:28:40;103773.44;;;5.75;58.74
38786;BME280;24535;45.508;12.252;2023-02-13T07:31:06;103763.00;;;5.85;58.97
38786;BME280;24535;45.508;12.252;2023-02-13T07:33:34;103763.06;;;5.98;58.89
38786;BME280;24535;45.508;12.252;2023-02-13T07:36:00;103768.31;;;6.08;58.90
38786;BME280;24535;45.508;12.252;2023-02-13T07:38:29;103760.47;;;6.17;58.73
38786;BME280;24535;45.508;12.252;2023-02-13T07:40:58;103762.19;;;6.28;58.67
38786;BME280;24535;45.508;12.252;2023-02-13T07:43:27;103770.06;;;6.37;58.59
38786;BME280;24535;45.508;12.252;2023-02-13T07:45:52;103769.16;;;6.47;58.16
38786;BME280;24535;45.508;12.252;2023-02-13T07:48:23;103767.41;;;6.58;58.39
38786;BME280;24535;45.508;12.252;2023-02-13T07:50:53;103768.28;;;6.68;58.22
38786;BME280;24535;45.508;12.252;2023-02-13T07:53:18;103771.75;;;6.76;58.19
38786;BME280;24535;45.508;12.252;2023-02-13T07:55:44;103773.50;;;6.86;57.69
38786;BME280;24535;45.508;12.252;2023-02-13T07:58:09;103776.09;;;6.94;57.86
38786;BME280;24535;45.508;12.252;2023-02-13T08:00:35;103769.09;;;7.02;57.44
38786;BME280;24535;45.508;12.252;2023-02-13T08:03:00;103773.41;;;7.12;57.32
38786;BME280;24535;45.508;12.252;2023-02-13T08:05:28;103768.13;;;7.20;57.33
38786;BME280;24535;45.508;12.252;2023-02-13T08:07:53;103773.34;;;7.28;57.34
38786;BME280;24535;45.508;12.252;2023-02-13T08:10:19;103785.53;;;7.36;56.91
38786;BME280;24535;45.508;12.252;2023-02-13T08:13:04;103782.03;;;7.47;57.24
38786;BME280;24535;45.508;12.252;2023-02-13T08:15:31;103772.34;;;7.53;56.81
38786;BME280;24535;45.508;12.252;2023-02-13T08:17:56;103767.94;;;7.63;56.67
38786;BME280;24535;45.508;12.252;2023-02-13T08:20:21;103773.16;;;7.69;56.95
38786;BME280;24535;45.508;12.252;2023-02-13T08:22:48;103775.72;;;7.77;56.64
38786;BME280;24535;45.508;12.252;2023-02-13T08:25:14;103773.94;;;7.85;56.69
38786;BME280;24535;45.508;12.252;2023-02-13T08:27:39;103770.38;;;7.95;57.06
38786;BME280;24535;45.508;12.252;2023-02-13T08:30:05;103767.66;;;8.10;56.86
38786;BME280;24535;45.508;12.252;2023-02-13T08:32:30;103764.84;;;8.30;56.71
38786;BME280;24535;45.508;12.252;2023-02-13T08:34:56;103766.44;;;8.50;56.59
38786;BME280;24535;45.508;12.252;2023-02-13T08:37:21;103764.56;;;8.62;55.38
38786;BME280;24535;45.508;12.252;2023-02-13T08:39:47;103762.75;;;8.72;55.03
38786;BME280;24535;45.508;12.252;2023-02-13T08:42:12;103762.66;;;8.80;55.39
38786;BME280;24535;45.508;12.252;2023-02-13T08:44:38;103759.97;;;8.87;54.40
38786;BME280;24535;45.508;12.252;2023-02-13T08:47:06;103768.66;;;8.93;54.39
38786;BME280;24535;45.508;12.252;2023-02-13T08:49:32;103772.94;;;9.01;54.52
38786;BME280;24535;45.508;12.252;2023-02-13T08:51:59;103758.72;;;9.18;55.65
38786;BME280;24535;45.508;12.252;2023-02-13T08:54:25;103761.91;;;9.44;55.06
38786;BME280;24535;45.508;12.252;2023-02-13T08:56:54;103752.75;;;9.71;54.39
38786;BME280;24535;45.508;12.252;2023-02-13T08:59:19;103755.88;;;9.96;54.14
38786;BME280;24535;45.508;12.252;2023-02-13T09:01:45;103757.31;;;10.15;53.79
38786;BME280;24535;45.508;12.252;2023-02-13T09:04:14;103753.56;;;10.32;52.54
38786;BME280;24535;45.508;12.252;2023-02-13T09:06:42;103755.16;;;10.42;52.46
38786;BME280;24535;45.508;12.252;2023-02-13T09:09:08;103751.53;;;10.49;52.11
38786;BME280;24535;45.508;12.252;2023-02-13T09:11:33;103747.03;;;10.54;51.69
38786;BME280;24535;45.508;12.252;2023-02-13T09:13:59;103747.84;;;10.56;51.57
38786;BME280;24535;45.508;12.252;2023-02-13T09:16:24;103741.72;;;10.56;51.85
38786;BME280;24535;45.508;12.252;2023-02-13T09:18:50;103750.50;;;10.56;51.85
38786;BME280;24535;45.508;12.252;2023-02-13T09:21:17;103749.59;;;10.59;52.22
38786;BME280;24535;45.508;12.252;2023-02-13T09:23:43;103756.41;;;10.71;52.13
38786;BME280;24535;45.508;12.252;2023-02-13T09:26:11;103754.44;;;10.80;52.44
38786;BME280;24535;45.508;12.252;2023-02-13T09:28:37;103763.84;;;10.95;52.01
38786;BME280;24535;45.508;12.252;2023-02-13T09:33:31;103759.69;;;11.27;51.13
38786;BME280;24535;45.508;12.252;2023-02-13T09:35:57;103758.56;;;11.37;51.10
38786;BME280;24535;45.508;12.252;2023-02-13T09:38:25;103764.56;;;11.45;49.64
38786;BME280;24535;45.508;12.252;2023-02-13T09:40:57;103755.66;;;11.49;49.37
38786;BME280;24535;45.508;12.252;2023-02-13T09:43:29;103754.75;;;11.50;49.31
38786;BME280;24535;45.508;12.252;2023-02-13T09:45:59;103763.59;;;11.49;48.55
38786;BME280;24535;45.508;12.252;2023-02-13T09:48:31;103759.28;;;11.45;48.65
38786;BME280;24535;45.508;12.252;2023-02-13T09:50:59;103761.09;;;11.43;48.54
38786;BME280;24535;45.508;12.252;2023-02-13T09:53:26;103758.47;;;11.42;48.78
38786;BME280;24535;45.508;12.252;2023-02-13T09:56:08;103767.13;;;11.48;48.30
38786;BME280;24535;45.508;12.252;2023-02-13T09:58:43;103761.69;;;11.56;48.77
38786;BME280;24535;45.508;12.252;2023-02-13T10:01:28;103751.78;;;11.66;48.00
38786;BME280;24535;45.508;12.252;2023-02-13T10:04:19;103749.00;;;11.72;48.09
38786;BME280;24535;45.508;12.252;2023-02-13T10:06:55;103753.31;;;11.76;48.91
38786;BME280;24535;45.508;12.252;2023-02-13T10:09:54;103749.75;;;11.77;46.84
38786;BME280;24535;45.508;12.252;2023-02-13T10:15:28;103749.69;;;11.80;47.67
38786;BME280;24535;45.508;12.252;2023-02-13T10:18:04;103752.34;;;11.80;48.04
38786;BME280;24535;45.508;12.252;2023-02-13T10:20:40;103754.03;;;11.84;48.38
38786;BME280;24535;45.508;12.252;2023-02-13T10:23:29;103757.38;;;11.92;48.16
38786;BME280;24535;45.508;12.252;2023-02-13T10:26:00;103753.56;;;12.02;48.99
38786;BME280;24535;45.508;12.252;2023-02-13T10:28:33;103739.94;;;12.19;49.36
38786;BME280;24535;45.508;12.252;2023-02-13T10:31:15;103740.47;;;12.33;47.91
38786;BME280;24535;45.508;12.252;2023-02-13T10:33:57;103741.88;;;12.48;47.21
38786;BME280;24535;45.508;12.252;2023-02-13T10:36:30;103737.97;;;12.61;49.27
38786;BME280;24535;45.508;12.252;2023-02-13T10:39:17;103729.69;;;12.74;48.45
38786;BME280;24535;45.508;12.252;2023-02-13T10:41:54;103730.28;;;12.83;47.79
38786;BME280;24535;45.508;12.252;2023-02-13T10:47:30;103729.06;;;12.97;46.26
38786;BME280;24535;45.508;12.252;2023-02-13T10:55:57;103712.41;;;12.92;45.15
38786;BME280;24535;45.508;12.252;2023-02-13T11:03:41;103703.38;;;12.69;44.67
38786;BME280;24535;45.508;12.252;2023-02-13T11:06:11;103701.00;;;12.60;45.51
38786;BME280;24535;45.508;12.252;2023-02-13T11:08:43;103698.44;;;12.55;45.06
38786;BME280;24535;45.508;12.252;2023-02-13T11:11:35;103704.78;;;12.50;44.76
38786;BME280;24535;45.508;12.252;2023-02-13T11:14:08;103701.44;;;12.43;45.23
38786;BME280;24535;45.508;12.252;2023-02-13T11:19:47;103693.81;;;12.31;45.56
38786;BME280;24535;45.508;12.252;2023-02-13T11:22:13;103694.81;;;12.27;46.05
38786;BME280;24535;45.508;12.252;2023-02-13T11:24:42;103701.94;;;12.25;46.28
38786;BME280;24535;45.508;12.252;2023-02-13T11:27:15;103692.34;;;12.21;45.66
38786;BME280;24535;45.508;12.252;2023-02-13T11:29:54;103689.78;;;12.18;45.27
38786;BME280;24535;45.508;12.252;2023-02-13T11:32:30;103681.13;;;12.12;46.08
38786;BME280;24535;45.508;12.252;2023-02-13T11:34:57;103679.47;;;12.08;45.77
38786;BME280;24535;45.508;12.252;2023-02-13T11:37:28;103683.09;;;12.04;46.03
38786;BME280;24535;45.508;12.252;2023-02-13T11:39:58;103686.72;;;12.00;45.83
38786;BME280;24535;45.508;12.252;2023-02-13T11:42:28;103677.06;;;11.98;45.96
38786;BME280;24535;45.508;12.252;2023-02-13T11:44:58;103671.00;;;11.94;46.01
38786;BME280;24535;45.508;12.252;2023-02-13T11:47:38;103663.13;;;11.93;45.91
38786;BME280;24535;45.508;12.252;2023-02-13T11:50:18;103665.72;;;11.94;46.24
38786;BME280;24535;45.508;12.252;2023-02-13T11:53:36;103674.59;;;11.92;46.34
38786;BME280;24535;45.508;12.252;2023-02-13T11:55:39;103664.97;;;11.89;46.84
38786;BME280;24535;45.508;12.252;2023-02-13T12:00:37;103658.94;;;11.84;47.06
38786;BME280;24535;45.508;12.252;2023-02-13T12:03:30;103662.41;;;11.86;46.21
38786;BME280;24535;45.508;12.252;2023-02-13T12:06:01;103658.88;;;11.87;47.25
38786;BME280;24535;45.508;12.252;2023-02-13T12:08:29;103652.69;;;11.86;46.89
38786;BME280;24535;45.508;12.252;2023-02-13T12:10:56;103648.25;;;11.88;47.30
38786;BME280;24535;45.508;12.252;2023-02-13T12:13:33;103652.69;;;11.86;46.71
38786;BME280;24535;45.508;12.252;2023-02-13T12:16:09;103662.41;;;11.86;46.45
38786;BME280;24535;45.508;12.252;2023-02-13T12:18:43;103653.66;;;11.84;46.31
38786;BME280;24535;45.508;12.252;2023-02-13T12:34:34;103639.22;;;11.97;47.24
38786;BME280;24535;45.508;12.252;2023-02-13T12:40:30;103634.84;;;11.96;47.43
38786;BME280;24535;45.508;12.252;2023-02-13T12:51:42;103611.28;;;11.88;47.30
38786;BME280;24535;45.508;12.252;2023-02-13T12:54:25;103607.72;;;11.90;47.76
38786;BME280;24535;45.508;12.252;2023-02-13T13:10:57;103596.34;;;11.87;47.41
38786;BME280;24535;45.508;12.252;2023-02-13T13:16:36;103586.72;;;11.85;47.16
38786;BME280;24535;45.508;12.252;2023-02-13T13:26:53;103579.03;;;11.74;47.46
38786;BME280;24535;45.508;12.252;2023-02-13T13:29:24;103582.59;;;11.73;47.89
38786;BME280;24535;45.508;12.252;2023-02-13T13:32:04;103580.81;;;11.74;47.66
38786;BME280;24535;45.508;12.252;2023-02-13T13:34:33;103576.44;;;11.73;47.45
38786;BME280;24535;45.508;12.252;2023-02-13T13:37:03;103580.00;;;11.72;47.92
38786;BME280;24535;45.508;12.252;2023-02-13T13:39:34;103576.50;;;11.71;48.30
38786;BME280;24535;45.508;12.252;2023-02-13T13:47:37;103564.88;;;11.77;48.44
38786;BME280;24535;45.508;12.252;2023-02-13T13:50:04;103568.38;;;11.79;48.14
38786;BME280;24535;45.508;12.252;2023-02-13T13:52:37;103569.19;;;11.81;48.73
38786;BME280;24535;45.508;12.252;2023-02-13T13:55:03;103554.97;;;11.86;48.07
38786;BME280;24535;45.508;12.252;2023-02-13T14:00:24;103553.03;;;11.93;47.87
38786;BME280;24535;45.508;12.252;2023-02-13T14:03:23;103550.34;;;11.95;47.80
38786;BME280;24535;45.508;12.252;2023-02-13T14:06:09;103553.97;;;11.92;47.44
38786;BME280;24535;45.508;12.252;2023-02-13T14:11:46;103549.69;;;11.86;47.46
38786;BME280;24535;45.508;12.252;2023-02-13T14:16:56;103549.78;;;11.83;48.14
38786;BME280;24535;45.508;12.252;2023-02-13T14:19:31;103541.81;;;11.85;48.08
38786;BME280;24535;45.508;12.252;2023-02-13T14:24:56;103543.53;;;11.86;48.27
38786;BME280;24535;45.508;12.252;2023-02-13T14:27:34;103540.09;;;11.84;47.86
38786;BME280;24535;45.508;12.252;2023-02-13T14:30:03;103541.00;;;11.83;48.16
38786;BME280;24535;45.508;12.252;2023-02-13T14:32:37;103531.34;;;11.80;47.83
38786;BME280;24535;45.508;12.252;2023-02-13T14:37:53;103536.56;;;11.82;48.37
38786;BME280;24535;45.508;12.252;2023-02-13T14:43:19;103532.03;;;11.88;47.96
38786;BME280;24535;45.508;12.252;2023-02-13T14:48:39;103530.31;;;11.87;47.65
38786;BME280;24535;45.508;12.252;2023-02-13T14:51:15;103532.09;;;11.85;48.33
38786;BME280;24535;45.508;12.252;2023-02-13T14:53:51;103531.25;;;11.85;48.08
38786;BME280;24535;45.508;12.252;2023-02-13T14:56:20;103529.47;;;11.85;48.19
38786;BME280;24535;45.508;12.252;2023-02-13T15:01:44;103519.88;;;11.83;47.93
38786;BME280;24535;45.508;12.252;2023-02-13T15:04:40;103533.94;;;11.82;48.33
38786;BME280;24535;45.508;12.252;2023-02-13T15:07:06;103526.06;;;11.80;47.56
38786;BME280;24535;45.508;12.252;2023-02-13T15:09:39;103526.13;;;11.77;48.11
38786;BME280;24535;45.508;12.252;2023-02-13T15:12:28;103526.13;;;11.79;47.96
38786;BME280;24535;45.508;12.252;2023-02-13T15:14:54;103524.34;;;11.78;48.26
38786;BME280;24535;45.508;12.252;2023-02-13T15:19:53;103521.78;;;11.76;47.90
38786;BME280;24535;45.508;12.252;2023-02-13T15:22:29;103518.28;;;11.74;47.23
38786;BME280;24535;45.508;12.252;2023-02-13T15:24:56;103517.47;;;11.72;47.98
38786;BME280;24535;45.508;12.252;2023-02-13T15:27:30;103523.69;;;11.71;47.22
38786;BME280;24535;45.508;12.252;2023-02-13T15:29:59;103526.38;;;11.68;48.04
38786;BME280;24535;45.508;12.252;2023-02-13T15:32:29;103522.91;;;11.66;47.71
38786;BME280;24535;45.508;12.252;2023-02-13T15:34:55;103521.19;;;11.65;47.48